DLH452 EDDM-KLAX
Flight info
| Callsign | DLH452 |
|---|---|
| Flight time | N/A |
| Altitude | 34000 |
| Route | GIVMI6S GIVMI Y101 INBED DCT REKDI DCT LOHRE DCT ADKUV DCT DENUT L610 KOPUL Q60 OKSAW DCT TEWXI DCT LIPGO DCT KLY DCT ENULA DCT PIKIL/M085F360 DCT 57N020W 57N030W 57N040W 56N050W DCT JANJO/N0498F360 DCT DENSO DCT AGLOL/N0498F380 DCT MERNU DCT XEXUL DCT BLUOX DCT RAP J158 DDY J107 OCS/N0491F400 J107 NORRA J100 LAS Q70 HAILO DCT KOPLE BOGET2 |
| Aircraft | A388/J-SADE2E3FGHIJ3J4J5M1RWXY/LB1D1 |
Departure
| Time | 2026-05-04 20:10 |
|---|---|
| Airport | Munich Airport (EDDM) |
Arrival
| Time | N/A |
|---|---|
| Airport | Los Angeles International Airport (KLAX) |
| Time | Latitude | Longitude | Altitude | Speed | Heading |
|---|---|---|---|---|---|
| 2026-05-04 19:30 | 48.35596 | 11.79296 | 1475 ft | 0 kts | 263° |
| 2026-05-04 19:55 | 48.35597 | 11.79306 | 1490 ft | 4 kts | 264° |
| 2026-05-04 19:55 | 48.35599 | 11.79346 | 1483 ft | 4 kts | 270° |
| 2026-05-04 19:55 | 48.35596 | 11.79385 | 1475 ft | 4 kts | 283° |
| 2026-05-04 19:55 | 48.35587 | 11.79418 | 1475 ft | 4 kts | 308° |
| 2026-05-04 19:56 | 48.35574 | 11.79433 | 1475 ft | 3 kts | 349° |
| 2026-05-04 19:56 | 48.35571 | 11.79434 | 1475 ft | 0 kts | 353° |
| 2026-05-04 19:58 | 48.35582 | 11.79432 | 1475 ft | 3 kts | 353° |
| 2026-05-04 19:59 | 48.35611 | 11.79427 | 1475 ft | 5 kts | 353° |
| 2026-05-04 19:59 | 48.35654 | 11.79419 | 1481 ft | 7 kts | 353° |
| 2026-05-04 19:59 | 48.35709 | 11.79409 | 1483 ft | 9 kts | 353° |
| 2026-05-04 19:59 | 48.35774 | 11.79398 | 1490 ft | 10 kts | 353° |
| 2026-05-04 20:00 | 48.35847 | 11.79385 | 1480 ft | 11 kts | 353° |
| 2026-05-04 20:00 | 48.35897 | 11.79368 | 1478 ft | 11 kts | 338° |
| 2026-05-04 20:00 | 48.36000 | 11.79333 | 1483 ft | 12 kts | 353° |
| 2026-05-04 20:00 | 48.36085 | 11.79317 | 1475 ft | 13 kts | 353° |
| 2026-05-04 20:01 | 48.36172 | 11.79303 | 1484 ft | 6 kts | 2° |
| 2026-05-04 20:01 | 48.36183 | 11.79308 | 1483 ft | 2 kts | 35° |
| 2026-05-04 20:01 | 48.36196 | 11.79326 | 1478 ft | 2 kts | 64° |
| 2026-05-04 20:01 | 48.36201 | 11.79358 | 1483 ft | 6 kts | 77° |
| 2026-05-04 20:02 | 48.36208 | 11.79407 | 1477 ft | 9 kts | 81° |
| 2026-05-04 20:02 | 48.36216 | 11.79520 | 1483 ft | 13 kts | 84° |
| 2026-05-04 20:02 | 48.36232 | 11.79730 | 1478 ft | 17 kts | 82° |
| 2026-05-04 20:02 | 48.36250 | 11.79923 | 1479 ft | 19 kts | 82° |
| 2026-05-04 20:03 | 48.36265 | 11.80123 | 1476 ft | 19 kts | 84° |
| 2026-05-04 20:03 | 48.36274 | 11.80256 | 1481 ft | 19 kts | 84° |
| 2026-05-04 20:03 | 48.36288 | 11.80452 | 1480 ft | 19 kts | 83° |
| 2026-05-04 20:03 | 48.36305 | 11.80642 | 1484 ft | 19 kts | 83° |
| 2026-05-04 20:04 | 48.36320 | 11.80834 | 1483 ft | 18 kts | 83° |
| 2026-05-04 20:04 | 48.36334 | 11.81025 | 1490 ft | 18 kts | 83° |
| 2026-05-04 20:04 | 48.36348 | 11.81215 | 1480 ft | 18 kts | 83° |
| 2026-05-04 20:04 | 48.36362 | 11.81404 | 1486 ft | 18 kts | 84° |
| 2026-05-04 20:05 | 48.36376 | 11.81594 | 1476 ft | 18 kts | 84° |
| 2026-05-04 20:05 | 48.36395 | 11.81843 | 1477 ft | 18 kts | 84° |
| 2026-05-04 20:05 | 48.36391 | 11.81964 | 1481 ft | 17 kts | 90° |
| 2026-05-04 20:05 | 48.36407 | 11.82129 | 1485 ft | 12 kts | 47° |
| 2026-05-04 20:06 | 48.36461 | 11.82136 | 1482 ft | 8 kts | 353° |
| 2026-05-04 20:06 | 48.36523 | 11.82126 | 1489 ft | 10 kts | 353° |
| 2026-05-04 20:06 | 48.36537 | 11.82123 | 1478 ft | 0 kts | 353° |
| 2026-05-04 20:06 | 48.36541 | 11.82123 | 1477 ft | 0 kts | 353° |
| 2026-05-04 20:07 | 48.36543 | 11.82122 | 1477 ft | 0 kts | 353° |
| 2026-05-04 20:07 | 48.36548 | 11.82121 | 1479 ft | 0 kts | 353° |
| 2026-05-04 20:08 | 48.36550 | 11.82121 | 1479 ft | 1 kts | 353° |
| 2026-05-04 20:08 | 48.36567 | 11.82118 | 1483 ft | 4 kts | 352° |
| 2026-05-04 20:08 | 48.36605 | 11.82110 | 1484 ft | 7 kts | 352° |
| 2026-05-04 20:08 | 48.36678 | 11.82078 | 1475 ft | 2 kts | 306° |
| 2026-05-04 20:09 | 48.36671 | 11.81899 | 1483 ft | 40 kts | 263° |
| 2026-05-04 20:09 | 48.36613 | 11.81112 | 1484 ft | 109 kts | 264° |
| 2026-05-04 20:09 | 48.36506 | 11.79708 | 1487 ft | 157 kts | 264° |
| 2026-05-04 20:09 | 48.36365 | 11.77981 | 1740 ft | 167 kts | 263° |
| 2026-05-04 20:10 | 48.36246 | 11.76231 | 2171 ft | 173 kts | 267° |
| 2026-05-04 20:10 | 48.36176 | 11.74385 | 2517 ft | 181 kts | 264° |
| 2026-05-04 20:10 | 48.35988 | 11.72485 | 2908 ft | 184 kts | 263° |
| 2026-05-04 20:10 | 48.35830 | 11.70592 | 3220 ft | 190 kts | 263° |
| 2026-05-04 20:11 | 48.35776 | 11.68512 | 3308 ft | 206 kts | 279° |
| 2026-05-04 20:11 | 48.36272 | 11.66455 | 3420 ft | 216 kts | 303° |
| 2026-05-04 20:11 | 48.37116 | 11.64521 | 3512 ft | 231 kts | 303° |